createdAt,value
2022-11-06T00:01:30.278Z,94472.69
2022-11-06T00:03:55.184Z,94475.77
2022-11-06T00:06:23.529Z,94475.27
2022-11-06T00:08:50.834Z,94479.13
2022-11-06T00:11:22.862Z,94479.63
2022-11-06T00:13:48.163Z,94478.94
2022-11-06T00:16:25.758Z,94476.23
2022-11-06T00:18:51.241Z,94483.16
2022-11-06T00:21:17.852Z,94480.58
2022-11-06T00:23:45.955Z,94481.39
2022-11-06T00:26:15.172Z,94475.42
2022-11-06T00:28:42.311Z,94482.69
2022-11-06T00:31:08.861Z,94480.92
2022-11-06T00:33:35.468Z,94476.01
2022-11-06T00:36:05.626Z,94484.44
2022-11-06T00:38:34.365Z,94479.88
2022-11-06T00:41:04.013Z,94478.59
2022-11-06T00:43:32.463Z,94480.58
2022-11-06T00:46:04.710Z,94477.52
2022-11-06T00:48:33.897Z,94480.11
2022-11-06T00:51:05.030Z,94477.84
2022-11-06T00:53:38.326Z,94476.55
2022-11-06T00:56:10.696Z,94474.48
2022-11-06T00:58:32.966Z,94469.79
2022-11-06T01:01:04.487Z,94483.00
2022-11-06T01:03:31.066Z,94478.34
2022-11-06T01:06:03.609Z,94475.07
2022-11-06T01:08:26.068Z,94468.16
2022-11-06T01:10:57.151Z,94468.16
2022-11-06T01:13:27.165Z,94472.02
2022-11-06T01:15:56.900Z,94463.62
2022-11-06T01:18:32.533Z,94470.73
2022-11-06T01:20:59.173Z,94470.73
2022-11-06T01:23:26.063Z,94465.09
2022-11-06T01:25:59.894Z,94465.09
2022-11-06T01:28:31.580Z,94469.09
2022-11-06T01:30:55.060Z,94461.51
2022-11-06T01:33:28.640Z,94457.95
2022-11-06T01:35:58.001Z,94455.18
2022-11-06T01:38:31.583Z,94456.81
2022-11-06T01:40:58.363Z,94457.64
2022-11-06T01:43:26.396Z,94459.87
2022-11-06T01:46:06.763Z,94459.87
2022-11-06T01:48:33.609Z,94461.83
2022-11-06T01:51:07.570Z,94461.83
2022-11-06T01:56:26.086Z,94462.45
2022-11-06T01:58:54.965Z,94451.78
2022-11-06T02:01:22.285Z,94454.36
2022-11-06T02:03:48.830Z,94457.29
2022-11-06T02:06:18.802Z,94452.28
2022-11-06T02:08:46.516Z,94448.42
2022-11-06T02:11:16.170Z,94455.18
2022-11-06T02:13:50.637Z,94459.05
2022-11-06T02:16:20.821Z,94456.47
2022-11-06T02:18:56.514Z,94454.71
2022-11-06T02:21:23.657Z,94449.20
2022-11-06T02:23:50.109Z,94454.36
2022-11-06T02:26:16.718Z,94456.62
2022-11-06T02:28:46.392Z,94452.60
2022-11-06T02:31:13.007Z,94453.70
2022-11-06T02:33:42.583Z,94451.47
2022-11-06T02:36:11.859Z,94451.00
2022-11-06T02:38:39.116Z,94448.89
2022-11-06T02:41:05.544Z,94454.05
2022-11-06T02:43:32.047Z,94453.23
2022-11-06T02:46:00.728Z,94448.07
2022-11-06T02:48:25.525Z,94448.07
2022-11-06T02:50:52.067Z,94443.38
2022-11-06T02:53:20.556Z,94453.23
2022-11-06T02:55:47.592Z,94467.26
2022-11-06T02:58:14.950Z,94468.23
2022-11-06T03:00:45.213Z,94464.48
2022-11-06T03:03:13.526Z,94464.48
2022-11-06T03:05:46.596Z,94466.59
2022-11-06T03:08:11.415Z,94475.14
2022-11-06T03:10:37.244Z,94487.22
2022-11-06T03:13:07.053Z,94476.91
2022-11-06T03:15:33.542Z,94472.69
2022-11-06T03:18:00.043Z,94482.88
2022-11-06T03:20:26.868Z,94486.75
2022-11-06T03:25:39.502Z,94484.80
2022-11-06T03:28:06.098Z,94484.80
2022-11-06T03:30:32.718Z,94488.52
2022-11-06T03:33:00.786Z,94494.14
2022-11-06T03:35:32.511Z,94494.14
2022-11-06T03:37:57.155Z,94496.41
2022-11-06T03:40:31.122Z,94503.63
2022-11-06T03:42:56.163Z,94489.14
2022-11-06T03:45:23.891Z,94506.22
2022-11-06T03:47:52.491Z,94501.06
2022-11-06T03:50:19.190Z,94495.58
2022-11-06T03:52:54.484Z,94496.88
2022-11-06T03:55:23.060Z,94498.28
2022-11-06T03:57:57.826Z,94493.47
2022-11-06T04:00:23.292Z,94488.31
2022-11-06T04:02:52.170Z,94492.19
2022-11-06T04:05:16.641Z,94492.19
2022-11-06T04:07:43.813Z,94491.37
2022-11-06T04:10:18.453Z,94498.63
2022-11-06T04:12:39.793Z,94498.63
2022-11-06T04:15:06.494Z,94487.34
2022-11-06T04:17:31.180Z,94487.34
2022-11-06T04:19:58.029Z,94499.92
2022-11-06T04:22:25.159Z,94499.09
2022-11-06T04:24:51.861Z,94500.39
2022-11-06T04:27:23.402Z,94495.23
2022-11-06T04:29:48.126Z,94493.94
2022-11-06T04:32:30.329Z,94495.70
2022-11-06T04:35:01.597Z,94498.63
2022-11-06T04:37:43.510Z,94505.55
2022-11-06T04:42:58.834Z,94512.47
2022-11-06T04:45:28.132Z,94502.30
2022-11-06T04:47:55.473Z,94506.64
2022-11-06T04:53:09.033Z,94506.95
2022-11-06T04:55:35.681Z,94508.75
2022-11-06T04:58:02.413Z,94510.83
2022-11-06T05:00:35.907Z,94510.03
2022-11-06T05:03:05.302Z,94515.19
2022-11-06T05:05:32.307Z,94512.62
2022-11-06T05:07:58.792Z,94516.48
2022-11-06T05:10:25.277Z,94516.13
2022-11-06T05:12:51.692Z,94522.11
2022-11-06T05:15:36.723Z,94524.69
2022-11-06T05:18:09.494Z,94530.67
2022-11-06T05:20:41.923Z,94522.77
2022-11-06T05:23:24.423Z,94522.77
2022-11-06T05:25:49.667Z,94542.27
2022-11-06T05:28:16.623Z,94548.22
2022-11-06T05:30:43.358Z,94546.61
2022-11-06T05:33:10.196Z,94550.95
2022-11-06T05:35:37.336Z,94560.79
2022-11-06T05:38:05.940Z,94551.42
2022-11-06T05:40:31.344Z,94561.27
2022-11-06T05:43:00.471Z,94565.13
2022-11-06T05:45:26.904Z,94561.27
2022-11-06T05:47:53.362Z,94560.79
2022-11-06T05:50:20.054Z,94564.66
2022-11-06T05:52:46.486Z,94574.00
2022-11-06T05:55:15.016Z,94567.23
2022-11-06T05:57:39.357Z,94580.95
2022-11-06T06:00:05.878Z,94587.40
2022-11-06T06:02:32.447Z,94588.69
2022-11-06T06:04:59.009Z,94592.55
2022-11-06T06:07:25.467Z,94597.21
2022-11-06T06:09:51.875Z,94584.00
2022-11-06T06:12:19.053Z,94589.98
2022-11-06T06:14:50.108Z,94591.12
2022-11-06T06:17:12.369Z,94598.85
2022-11-06T06:19:42.803Z,94603.07
2022-11-06T06:22:25.945Z,94607.41
2022-11-06T06:24:44.604Z,94611.28
2022-11-06T06:27:12.407Z,94615.14
2022-11-06T06:29:38.771Z,94618.19
2022-11-06T06:32:06.673Z,94619.95
2022-11-06T06:34:32.068Z,94626.28
2022-11-06T06:36:58.774Z,94632.73
2022-11-06T06:39:25.250Z,94636.95
2022-11-06T06:41:51.821Z,94640.00
2022-11-06T06:44:18.707Z,94636.13
2022-11-06T06:46:45.235Z,94641.61
2022-11-06T06:49:11.708Z,94643.72
2022-11-06T06:51:38.226Z,94645.48
2022-11-06T06:54:04.832Z,94648.41
2022-11-06T06:56:31.281Z,94648.88
2022-11-06T06:58:57.753Z,94646.65
2022-11-06T07:01:25.109Z,94655.20
2022-11-06T07:03:51.406Z,94652.63
2022-11-06T07:06:17.885Z,94661.50
2022-11-06T07:08:44.840Z,94654.85
2022-11-06T07:11:11.323Z,94645.53
2022-11-06T07:13:37.760Z,94645.53
2022-11-06T07:16:07.966Z,94665.52
2022-11-06T07:18:36.092Z,94667.28
2022-11-06T07:21:01.339Z,94668.10
2022-11-06T07:23:28.186Z,94670.68
2022-11-06T07:25:55.521Z,94669.86
2022-11-06T07:28:36.321Z,94675.48
2022-11-06T07:31:02.791Z,94674.55
2022-11-06T07:33:29.286Z,94679.70
2022-11-06T07:36:01.921Z,94681.94
2022-11-06T07:38:29.778Z,94678.06
2022-11-06T07:40:55.401Z,94677.59
2022-11-06T07:43:21.845Z,94678.89
2022-11-06T07:45:48.678Z,94678.89
2022-11-06T07:48:15.343Z,94684.86
2022-11-06T07:50:41.716Z,94684.52
2022-11-06T07:53:08.127Z,94683.90
2022-11-06T07:55:39.212Z,94684.40
2022-11-06T07:58:01.018Z,94685.33
2022-11-06T08:00:34.513Z,94687.91
2022-11-06T08:03:01.051Z,94693.89
2022-11-06T08:05:27.551Z,94692.60
2022-11-06T08:07:56.102Z,94698.23
2022-11-06T08:10:26.640Z,94701.95
2022-11-06T08:12:53.037Z,94693.42
2022-11-06T08:15:20.832Z,94708.08
2022-11-06T08:17:47.639Z,94705.03
2022-11-06T08:20:16.875Z,94706.78
2022-11-06T08:22:54.305Z,94705.50
2022-11-06T08:25:19.655Z,94707.11
2022-11-06T08:33:25.823Z,94720.00
2022-11-06T08:35:55.417Z,94718.39
2022-11-06T08:38:27.039Z,94717.10
2022-11-06T08:40:53.785Z,94716.75
2022-11-06T08:43:21.175Z,94717.42
2022-11-06T08:45:47.811Z,94720.15
2022-11-06T08:48:16.711Z,94723.88
2022-11-06T08:50:43.393Z,94725.98
2022-11-06T08:53:09.991Z,94726.80
2022-11-06T08:55:36.373Z,94723.46
2022-11-06T08:58:02.846Z,94723.46
2022-11-06T09:00:29.846Z,94740.05
2022-11-06T09:02:56.364Z,94741.34
2022-11-06T09:05:22.866Z,94745.77
2022-11-06T09:07:50.169Z,94745.77
2022-11-06T09:10:23.159Z,94732.64
2022-11-06T09:12:50.206Z,94712.23
2022-11-06T09:15:24.382Z,94731.88
2022-11-06T09:17:53.878Z,94731.88
2022-11-06T09:20:26.621Z,94747.17
2022-11-06T09:22:52.730Z,94740.26
2022-11-06T09:25:23.978Z,94748.94
2022-11-06T09:27:59.148Z,94747.17
2022-11-06T09:30:22.953Z,94745.77
2022-11-06T09:32:50.584Z,94749.17
2022-11-06T09:35:19.206Z,94751.75
2022-11-06T09:37:45.612Z,94743.19
2022-11-06T09:40:12.257Z,94740.94
2022-11-06T09:42:38.682Z,94738.85
2022-11-06T09:45:05.101Z,94746.09
2022-11-06T09:47:31.601Z,94749.17
2022-11-06T09:49:59.609Z,94748.67
2022-11-06T09:52:26.167Z,94747.53
2022-11-06T09:54:56.437Z,94751.25
2022-11-06T09:57:19.462Z,94748.20
2022-11-06T09:59:46.128Z,94743.52
2022-11-06T10:02:13.884Z,94740.82
2022-11-06T10:04:40.259Z,94740.82
2022-11-06T10:07:06.718Z,94739.06
2022-11-06T10:09:33.258Z,94741.64
2022-11-06T10:12:00.115Z,94736.13
2022-11-06T10:14:26.580Z,94741.96
2022-11-06T10:16:55.122Z,94740.34
2022-11-06T10:19:31.397Z,94742.22
2022-11-06T10:21:53.839Z,94742.22
2022-11-06T10:24:25.824Z,94744.13
2022-11-06T10:26:55.171Z,94738.88
2022-11-06T10:29:22.074Z,94747.17
2022-11-06T10:31:52.222Z,94744.50
2022-11-06T10:34:16.349Z,94745.00
2022-11-06T10:36:49.713Z,94738.41
2022-11-06T10:39:12.062Z,94741.92
2022-11-06T10:41:38.531Z,94733.87
2022-11-06T10:44:04.994Z,94733.98
2022-11-06T10:46:31.425Z,94747.09
2022-11-06T10:48:58.859Z,94737.64
2022-11-06T10:51:24.381Z,94742.19
2022-11-06T10:53:52.085Z,94746.06
2022-11-06T10:56:21.155Z,94741.52
2022-11-06T10:58:45.062Z,94749.60
2022-11-06T11:01:11.804Z,94748.16
2022-11-06T11:03:38.223Z,94747.34
2022-11-06T11:06:06.149Z,94748.78
2022-11-06T11:08:32.613Z,94756.05
2022-11-06T11:11:04.890Z,94748.89
2022-11-06T11:13:27.903Z,94748.89
2022-11-06T11:16:14.238Z,94748.08
2022-11-06T11:18:41.935Z,94745.17
2022-11-06T11:21:07.376Z,94742.97
2022-11-06T11:23:35.976Z,94741.77
2022-11-06T11:26:00.714Z,94739.81
2022-11-06T11:28:27.134Z,94735.70
2022-11-06T11:30:53.576Z,94735.38
2022-11-06T11:33:20.003Z,94734.41
2022-11-06T11:35:46.457Z,94730.95
2022-11-06T11:38:13.296Z,94735.28
2022-11-06T11:40:39.299Z,94730.34
2022-11-06T11:43:05.754Z,94734.88
2022-11-06T11:45:32.352Z,94731.52
2022-11-06T11:47:58.803Z,94731.52
2022-11-06T11:50:25.262Z,94725.80
2022-11-06T11:52:51.795Z,94727.81
2022-11-06T11:55:18.282Z,94730.86
2022-11-06T11:57:44.693Z,94728.89
2022-11-06T12:00:11.317Z,94734.05
2022-11-06T12:02:37.940Z,94730.50
2022-11-06T12:05:04.288Z,94736.36
2022-11-06T12:07:30.758Z,94729.77
2022-11-06T12:09:59.614Z,94729.30
2022-11-06T12:12:24.214Z,94727.41
2022-11-06T12:14:50.615Z,94728.63
2022-11-06T12:17:17.508Z,94725.70
2022-11-06T12:19:49.486Z,94725.80
2022-11-06T12:22:14.906Z,94728.33
2022-11-06T12:24:43.525Z,94731.80
2022-11-06T12:27:08.209Z,94730.50
2022-11-06T12:29:34.763Z,94729.47
2022-11-06T12:32:01.209Z,94725.75
2022-11-06T12:34:27.614Z,94728.44
2022-11-06T12:36:56.461Z,94731.38
2022-11-06T12:39:22.911Z,94737.56
2022-11-06T12:41:49.332Z,94732.20
2022-11-06T12:44:20.332Z,94736.06
2022-11-06T12:46:46.740Z,94735.92
2022-11-06T12:49:13.226Z,94736.73
2022-11-06T12:51:39.639Z,94732.31
2022-11-06T12:54:06.085Z,94731.73
2022-11-06T12:56:32.747Z,94729.38
2022-11-06T12:58:59.860Z,94728.70
2022-11-06T13:01:27.257Z,94733.39
2022-11-06T13:03:53.563Z,94726.94
2022-11-06T13:06:20.236Z,94734.77
2022-11-06T13:08:46.808Z,94732.31
2022-11-06T13:11:13.278Z,94743.54
2022-11-06T13:13:41.610Z,94732.88
2022-11-06T13:16:09.851Z,94730.72
2022-11-06T13:18:38.993Z,94730.72
2022-11-06T13:21:17.275Z,94751.29
2022-11-06T13:23:36.129Z,94751.79
2022-11-06T13:26:04.865Z,94754.37
2022-11-06T13:28:32.626Z,94756.59
2022-11-06T13:33:51.339Z,94759.78
2022-11-06T13:36:16.332Z,94759.22
2022-11-06T13:38:43.813Z,94760.83
2022-11-06T13:41:09.719Z,94757.78
2022-11-06T13:43:36.830Z,94763.08
2022-11-06T13:46:03.233Z,94762.47
2022-11-06T13:48:34.506Z,94761.08
2022-11-06T13:50:56.290Z,94762.11
2022-11-06T13:53:22.715Z,94766.69
2022-11-06T13:55:49.273Z,94764.94
2022-11-06T13:58:16.036Z,94763.08
2022-11-06T14:00:42.682Z,94759.89
2022-11-06T14:03:09.330Z,94762.73
2022-11-06T14:05:36.151Z,94766.13
2022-11-06T14:08:02.602Z,94767.99
2022-11-06T14:10:29.845Z,94764.84
2022-11-06T14:12:56.298Z,94769.64
2022-11-06T14:15:22.856Z,94770.67
2022-11-06T14:17:55.564Z,94764.73
2022-11-06T14:20:23.592Z,94767.31
2022-11-06T14:22:53.028Z,94771.19
2022-11-06T14:25:20.862Z,94771.33
2022-11-06T14:27:46.233Z,94768.75
2022-11-06T14:30:12.680Z,94766.64
2022-11-06T14:32:39.088Z,94783.14
2022-11-06T14:35:05.534Z,94783.14
2022-11-06T14:37:33.143Z,94786.08
2022-11-06T14:39:59.543Z,94787.11
2022-11-06T14:42:27.411Z,94793.13
2022-11-06T14:44:55.373Z,94791.02
2022-11-06T14:47:21.875Z,94793.49
2022-11-06T14:49:48.649Z,94787.63
2022-11-06T14:52:15.100Z,94798.86
2022-11-06T14:54:41.583Z,94789.52
2022-11-06T14:57:11.047Z,94795.00
2022-11-06T14:59:37.468Z,94794.42
2022-11-06T15:02:10.860Z,94789.98
2022-11-06T15:04:37.445Z,94803.77
2022-11-06T15:07:03.891Z,94799.89
2022-11-06T15:09:30.365Z,94798.70
2022-11-06T15:11:59.854Z,94799.89
2022-11-06T15:14:26.453Z,94797.88
2022-11-06T15:16:57.702Z,94800.78
2022-11-06T15:19:27.125Z,94806.18
2022-11-06T15:24:47.542Z,94809.44
2022-11-06T15:27:13.997Z,94808.01
2022-11-06T15:29:40.830Z,94812.70
2022-11-06T15:32:07.422Z,94816.09
2022-11-06T15:34:33.894Z,94814.34
2022-11-06T15:37:00.379Z,94818.56
2022-11-06T15:39:26.927Z,94821.14
2022-11-06T15:41:53.414Z,94822.28
2022-11-06T15:44:19.863Z,94822.28
2022-11-06T15:46:46.340Z,94822.28
2022-11-06T15:49:12.807Z,94826.51
2022-11-06T15:51:39.265Z,94825.22
2022-11-06T15:54:06.959Z,94833.31
2022-11-06T15:56:32.661Z,94829.45
2022-11-06T15:58:59.136Z,94834.60
2022-11-06T16:01:26.608Z,94840.44
2022-11-06T16:03:55.234Z,94841.72
2022-11-06T16:06:21.945Z,94850.75
2022-11-06T16:08:48.592Z,94849.45
2022-11-06T16:11:15.477Z,94851.22
2022-11-06T16:13:41.964Z,94857.66
2022-11-06T16:16:13.085Z,94862.35
2022-11-06T16:18:37.880Z,94862.81
2022-11-06T16:21:14.869Z,94860.23
2022-11-06T16:23:42.136Z,94860.70
2022-11-06T16:26:10.675Z,94865.28
2022-11-06T16:28:43.670Z,94870.44
2022-11-06T16:31:13.188Z,94871.73
2022-11-06T16:33:39.690Z,94874.17
2022-11-06T16:36:08.213Z,94876.42
2022-11-06T16:38:41.030Z,94879.79
2022-11-06T16:40:59.431Z,94886.59
2022-11-06T16:43:25.923Z,94889.53
2022-11-06T16:45:52.836Z,94894.33
2022-11-06T16:48:20.087Z,94896.44
2022-11-06T16:50:46.603Z,94894.69
2022-11-06T16:53:26.231Z,94898.41
2022-11-06T16:55:54.749Z,94897.73
2022-11-06T16:58:21.409Z,94901.13
2022-11-06T17:00:53.360Z,94901.13
2022-11-06T17:03:17.137Z,94902.42
2022-11-06T17:05:43.561Z,94906.28
2022-11-06T17:08:09.974Z,94906.28
2022-11-06T17:10:36.433Z,94910.16
2022-11-06T17:13:03.927Z,94910.48
2022-11-06T17:15:30.569Z,94912.73
2022-11-06T17:17:57.103Z,94910.48
2022-11-06T17:23:06.838Z,94922.91
2022-11-06T17:25:33.375Z,94917.75
2022-11-06T17:27:59.831Z,94922.09
2022-11-06T17:30:26.400Z,94924.20
2022-11-06T17:32:53.176Z,94934.05
2022-11-06T17:35:19.623Z,94930.53
2022-11-06T17:37:46.386Z,94931.00
2022-11-06T17:40:16.013Z,94937.45
2022-11-06T17:42:45.467Z,94933.11
2022-11-06T17:45:12.081Z,94933.58
2022-11-06T17:47:40.524Z,94932.29
2022-11-06T17:50:08.844Z,94931.47
2022-11-06T17:52:35.338Z,94934.73
2022-11-06T17:55:01.754Z,94939.56
2022-11-06T17:57:28.196Z,94944.72
2022-11-06T17:59:54.642Z,94938.73
2022-11-06T18:02:47.590Z,94947.63
2022-11-06T18:04:48.292Z,94951.48
2022-11-06T18:07:14.815Z,94945.87
2022-11-06T18:09:41.189Z,94939.59
2022-11-06T18:12:07.668Z,94939.59
2022-11-06T18:14:34.135Z,94957.00
2022-11-06T18:17:00.858Z,94960.88
2022-11-06T18:19:29.202Z,94960.05
2022-11-06T18:21:55.885Z,94962.63
2022-11-06T18:24:22.588Z,94955.36
2022-11-06T18:26:50.363Z,94953.28
2022-11-06T18:29:16.773Z,94957.47
2022-11-06T18:31:43.272Z,94960.66
2022-11-06T18:34:09.662Z,94958.55
2022-11-06T18:36:36.116Z,94959.01
2022-11-06T18:39:02.578Z,94962.05
2022-11-06T18:41:29.386Z,94959.48
2022-11-06T18:43:55.856Z,94955.61
2022-11-06T18:46:22.251Z,94952.70
2022-11-06T18:48:48.693Z,94963.34
2022-11-06T18:51:27.484Z,94963.84
2022-11-06T18:53:41.703Z,94958.33
2022-11-06T18:56:08.573Z,94965.13
2022-11-06T18:58:35.020Z,94966.89
2022-11-06T19:01:02.814Z,94969.46
2022-11-06T19:03:29.116Z,94963.48
2022-11-06T19:05:55.920Z,94968.64
2022-11-06T19:08:22.370Z,94970.04
2022-11-06T19:10:48.838Z,94972.62
2022-11-06T19:13:15.480Z,94986.80
2022-11-06T19:15:42.182Z,94983.29
2022-11-06T19:18:12.008Z,94979.56
2022-11-06T19:20:40.893Z,94983.07
2022-11-06T19:23:16.090Z,94989.88
2022-11-06T19:25:35.218Z,94991.16
2022-11-06T19:28:12.473Z,94992.45
2022-11-06T19:30:49.351Z,94986.47
2022-11-06T19:33:17.694Z,94993.38
2022-11-06T19:36:00.208Z,94996.43
2022-11-06T19:38:44.388Z,94992.56
2022-11-06T19:41:14.236Z,94987.05
2022-11-06T19:46:36.550Z,94995.25
2022-11-06T19:51:51.282Z,94994.78
2022-11-06T19:54:23.704Z,94988.34
2022-11-06T19:57:28.645Z,94996.53
2022-11-06T19:59:26.951Z,94991.98
2022-11-06T20:02:07.553Z,94991.98
2022-11-06T20:04:36.503Z,95003.48
2022-11-06T20:07:01.402Z,95010.03
2022-11-06T20:09:28.909Z,95009.10
2022-11-06T20:12:00.642Z,95018.13
2022-11-06T20:14:29.292Z,95021.03
2022-11-06T20:17:15.467Z,95022.81
2022-11-06T20:19:46.132Z,95028.77
2022-11-06T20:22:22.046Z,95029.73
2022-11-06T20:24:58.279Z,95029.84
2022-11-06T20:27:27.131Z,95034.99
2022-11-06T20:29:58.279Z,95034.06
2022-11-06T20:32:25.168Z,95046.48
2022-11-06T20:34:57.140Z,95047.42
2022-11-06T20:37:28.096Z,95046.02
2022-11-06T20:39:51.092Z,95047.88
2022-11-06T20:42:17.568Z,95050.46
2022-11-06T20:44:44.029Z,95051.28
2022-11-06T20:47:10.504Z,95053.51
2022-11-06T20:49:36.965Z,95050.46
2022-11-06T20:52:18.312Z,95050.92
2022-11-06T20:54:29.832Z,95054.33
2022-11-06T20:56:56.287Z,95058.34
2022-11-06T20:59:22.702Z,95054.00
2022-11-06T21:01:50.240Z,95056.22
2022-11-06T21:04:16.661Z,95055.75
2022-11-06T21:06:43.169Z,95056.69
2022-11-06T21:09:09.583Z,95059.73
2022-11-06T21:11:36.054Z,95059.27
2022-11-06T21:14:02.481Z,95069.11
2022-11-06T21:16:30.282Z,95075.56
2022-11-06T21:18:58.587Z,95080.72
2022-11-06T21:21:30.016Z,95078.60
2022-11-06T21:24:11.720Z,95078.60
2022-11-06T21:26:24.223Z,95089.27
2022-11-06T21:28:55.744Z,95088.91
2022-11-06T21:31:22.130Z,95090.67
2022-11-06T21:33:48.555Z,95089.38
2022-11-06T21:36:15.033Z,95097.94
2022-11-06T21:38:41.467Z,95095.00
2022-11-06T21:41:07.920Z,95101.45
2022-11-06T21:43:34.325Z,95100.16
2022-11-06T21:46:00.772Z,95101.12
2022-11-06T21:48:45.245Z,95104.16
2022-11-06T21:50:53.628Z,95105.31
2022-11-06T21:53:20.103Z,95100.76
2022-11-06T21:55:51.287Z,95097.72
2022-11-06T21:58:13.310Z,95100.98
2022-11-06T22:00:39.386Z,95104.16
2022-11-06T22:03:05.789Z,95103.80
2022-11-06T22:05:32.244Z,95105.09
2022-11-06T22:07:58.675Z,95109.31
2022-11-06T22:10:25.206Z,95103.94
2022-11-06T22:12:51.627Z,95108.95
2022-11-06T22:15:24.814Z,95106.38
2022-11-06T22:17:53.018Z,95112.00
2022-11-06T22:20:23.546Z,95113.75
2022-11-06T22:22:58.217Z,95114.58
2022-11-06T22:31:02.690Z,95115.87
2022-11-06T22:36:16.760Z,95123.27
2022-11-06T22:38:43.927Z,95128.42
2022-11-06T22:41:11.690Z,95131.47
2022-11-06T22:43:45.312Z,95125.02
2022-11-06T22:46:07.712Z,95125.48
2022-11-06T22:48:34.211Z,95120.80
2022-11-06T22:51:01.777Z,95120.80
2022-11-06T22:53:28.221Z,95128.53
2022-11-06T22:55:54.695Z,95130.28
2022-11-06T22:58:21.100Z,95131.94
2022-11-06T23:00:54.180Z,95129.95
2022-11-06T23:03:21.541Z,95128.53
2022-11-06T23:05:47.922Z,95119.97
2022-11-06T23:08:14.433Z,95125.27
2022-11-06T23:10:40.837Z,95123.02
2022-11-06T23:13:07.292Z,95115.77
2022-11-06T23:15:44.400Z,95120.93
2022-11-06T23:18:00.728Z,95127.70
2022-11-06T23:20:33.464Z,95123.15
2022-11-06T23:23:03.199Z,95122.69
2022-11-06T23:25:29.664Z,95120.67
2022-11-06T23:27:59.984Z,95121.50
2022-11-06T23:30:25.805Z,95118.92
2022-11-06T23:32:52.328Z,95127.02
2022-11-06T23:35:21.171Z,95127.84
2022-11-06T23:37:45.198Z,95127.95
2022-11-06T23:40:11.634Z,95131.45
2022-11-06T23:42:38.091Z,95128.08
2022-11-06T23:45:04.508Z,95123.72
2022-11-06T23:47:30.935Z,95129.38
2022-11-06T23:49:57.387Z,95134.53
2022-11-06T23:52:23.854Z,95131.34
2022-11-06T23:54:50.371Z,95134.39
2022-11-06T23:57:16.937Z,95139.08
2022-11-06T23:59:43.341Z,95141.66
